Terminal Aerodrome Forecast
Issued by NWS

Home | Current Version | Previous Version | Text Only | Print | Product List | Glossary On
Versions: 1 2 3 4 5 6 7 8 9 10 11 12 13 14 15 16 17 18 19 20 21 22 23
000
FTUS43 KIND 211737
TAFBMG
TAF
KBMG 211737Z 2118/2218 17003KT P6SM VCSH BKN150
     FM212100 17004KT 5SM BR VCSH BKN045
     FM220200 17004KT 4SM BR BKN020
     FM220300 VRB03KT 4SM BR BKN015
     FM220600 19004KT 3SM BR BKN008
     FM221100 00000KT 2SM BR BKN003
     FM221600 19004KT 4SM BR BKN008
     FM221700 19004KT 6SM BR BKN015=

USA.gov is the U.S. government's official web portal to all federal, state and local government web resources and services.